sensor_id;sensor_type;location;lat;lon;timestamp;P1;durP1;ratioP1;P2;durP2;ratioP2
23561;SDS011;11959;49.418;8.728;2023-05-09T00:00:10;18.58;;;14.45;;
23561;SDS011;11959;49.418;8.728;2023-05-09T00:02:37;18.27;;;14.52;;
23561;SDS011;11959;49.418;8.728;2023-05-09T00:05:04;21.25;;;14.57;;
23561;SDS011;11959;49.418;8.728;2023-05-09T00:07:31;17.98;;;13.70;;
23561;SDS011;11959;49.418;8.728;2023-05-09T00:09:58;18.10;;;14.63;;
23561;SDS011;11959;49.418;8.728;2023-05-09T00:12:25;18.13;;;14.88;;
23561;SDS011;11959;49.418;8.728;2023-05-09T00:14:51;17.02;;;14.15;;
23561;SDS011;11959;49.418;8.728;2023-05-09T00:17:18;18.75;;;14.80;;
23561;SDS011;11959;49.418;8.728;2023-05-09T00:19:46;17.13;;;14.90;;
23561;SDS011;11959;49.418;8.728;2023-05-09T00:22:13;18.85;;;14.65;;
23561;SDS011;11959;49.418;8.728;2023-05-09T00:24:39;17.98;;;13.68;;
23561;SDS011;11959;49.418;8.728;2023-05-09T00:27:05;17.25;;;14.70;;
23561;SDS011;11959;49.418;8.728;2023-05-09T00:29:31;18.90;;;13.80;;
23561;SDS011;11959;49.418;8.728;2023-05-09T00:31:56;21.45;;;15.20;;
23561;SDS011;11959;49.418;8.728;2023-05-09T00:34:22;20.05;;;14.63;;
23561;SDS011;11959;49.418;8.728;2023-05-09T00:36:48;17.35;;;14.25;;
23561;SDS011;11959;49.418;8.728;2023-05-09T00:39:14;18.67;;;15.07;;
23561;SDS011;11959;49.418;8.728;2023-05-09T00:41:40;21.02;;;15.98;;
23561;SDS011;11959;49.418;8.728;2023-05-09T00:44:06;16.70;;;14.75;;
23561;SDS011;11959;49.418;8.728;2023-05-09T00:46:32;17.45;;;15.25;;
23561;SDS011;11959;49.418;8.728;2023-05-09T00:48:58;19.05;;;14.80;;
23561;SDS011;11959;49.418;8.728;2023-05-09T00:51:24;18.55;;;14.77;;
23561;SDS011;11959;49.418;8.728;2023-05-09T00:53:50;19.00;;;15.23;;
23561;SDS011;11959;49.418;8.728;2023-05-09T00:56:15;17.25;;;14.65;;
23561;SDS011;11959;49.418;8.728;2023-05-09T00:58:41;19.98;;;15.55;;
23561;SDS011;11959;49.418;8.728;2023-05-09T01:01:07;22.35;;;15.48;;
23561;SDS011;11959;49.418;8.728;2023-05-09T01:03:33;22.17;;;16.80;;
23561;SDS011;11959;49.418;8.728;2023-05-09T01:06:16;20.83;;;15.80;;
23561;SDS011;11959;49.418;8.728;2023-05-09T01:09:04;20.13;;;15.52;;
23561;SDS011;11959;49.418;8.728;2023-05-09T01:11:40;22.40;;;16.20;;
23561;SDS011;11959;49.418;8.728;2023-05-09T01:16:52;20.17;;;15.80;;
23561;SDS011;11959;49.418;8.728;2023-05-09T01:19:33;21.65;;;16.40;;
23561;SDS011;11959;49.418;8.728;2023-05-09T01:22:23;21.23;;;15.45;;
23561;SDS011;11959;49.418;8.728;2023-05-09T01:25:02;18.75;;;14.95;;
23561;SDS011;11959;49.418;8.728;2023-05-09T01:30:38;19.58;;;15.43;;
23561;SDS011;11959;49.418;8.728;2023-05-09T01:33:09;21.02;;;15.40;;
23561;SDS011;11959;49.418;8.728;2023-05-09T01:35:42;19.00;;;15.07;;
23561;SDS011;11959;49.418;8.728;2023-05-09T01:38:13;19.42;;;15.77;;
23561;SDS011;11959;49.418;8.728;2023-05-09T01:40:42;18.33;;;14.82;;
23561;SDS011;11959;49.418;8.728;2023-05-09T01:43:11;21.88;;;15.50;;
23561;SDS011;11959;49.418;8.728;2023-05-09T01:45:40;20.50;;;14.98;;
23561;SDS011;11959;49.418;8.728;2023-05-09T01:48:07;18.00;;;15.00;;
23561;SDS011;11959;49.418;8.728;2023-05-09T01:50:34;18.33;;;15.13;;
23561;SDS011;11959;49.418;8.728;2023-05-09T01:53:01;18.70;;;15.55;;
23561;SDS011;11959;49.418;8.728;2023-05-09T01:55:30;19.02;;;15.38;;
23561;SDS011;11959;49.418;8.728;2023-05-09T01:57:58;17.98;;;14.38;;
23561;SDS011;11959;49.418;8.728;2023-05-09T02:00:25;20.80;;;15.73;;
23561;SDS011;11959;49.418;8.728;2023-05-09T02:02:51;19.20;;;14.55;;
23561;SDS011;11959;49.418;8.728;2023-05-09T02:05:17;20.75;;;14.48;;
23561;SDS011;11959;49.418;8.728;2023-05-09T02:07:44;21.08;;;15.52;;
23561;SDS011;11959;49.418;8.728;2023-05-09T02:10:11;17.30;;;14.30;;
23561;SDS011;11959;49.418;8.728;2023-05-09T02:12:39;19.45;;;15.63;;
23561;SDS011;11959;49.418;8.728;2023-05-09T02:15:05;23.38;;;15.60;;
23561;SDS011;11959;49.418;8.728;2023-05-09T02:17:31;21.13;;;15.63;;
23561;SDS011;11959;49.418;8.728;2023-05-09T02:19:57;20.42;;;15.60;;
23561;SDS011;11959;49.418;8.728;2023-05-09T02:22:22;20.67;;;15.30;;
23561;SDS011;11959;49.418;8.728;2023-05-09T02:24:48;22.90;;;16.05;;
23561;SDS011;11959;49.418;8.728;2023-05-09T02:27:14;22.33;;;15.70;;
23561;SDS011;11959;49.418;8.728;2023-05-09T02:29:43;22.52;;;16.80;;
23561;SDS011;11959;49.418;8.728;2023-05-09T02:32:16;22.83;;;16.27;;
23561;SDS011;11959;49.418;8.728;2023-05-09T02:34:46;22.90;;;16.35;;
23561;SDS011;11959;49.418;8.728;2023-05-09T02:37:14;23.48;;;16.45;;
23561;SDS011;11959;49.418;8.728;2023-05-09T02:39:40;21.27;;;16.08;;
23561;SDS011;11959;49.418;8.728;2023-05-09T02:42:10;21.02;;;16.33;;
23561;SDS011;11959;49.418;8.728;2023-05-09T02:44:37;24.63;;;16.95;;
23561;SDS011;11959;49.418;8.728;2023-05-09T02:47:04;20.52;;;15.98;;
23561;SDS011;11959;49.418;8.728;2023-05-09T02:49:30;20.10;;;15.55;;
23561;SDS011;11959;49.418;8.728;2023-05-09T02:51:57;19.52;;;15.02;;
23561;SDS011;11959;49.418;8.728;2023-05-09T02:54:22;20.33;;;17.10;;
23561;SDS011;11959;49.418;8.728;2023-05-09T02:56:48;22.27;;;17.25;;
23561;SDS011;11959;49.418;8.728;2023-05-09T02:59:14;19.67;;;16.48;;
23561;SDS011;11959;49.418;8.728;2023-05-09T03:01:40;23.05;;;16.80;;
23561;SDS011;11959;49.418;8.728;2023-05-09T03:04:06;21.05;;;17.10;;
23561;SDS011;11959;49.418;8.728;2023-05-09T03:06:32;21.90;;;17.38;;
23561;SDS011;11959;49.418;8.728;2023-05-09T03:08:57;21.77;;;17.30;;
23561;SDS011;11959;49.418;8.728;2023-05-09T03:11:23;20.50;;;16.85;;
23561;SDS011;11959;49.418;8.728;2023-05-09T03:13:48;23.08;;;16.92;;
23561;SDS011;11959;49.418;8.728;2023-05-09T03:16:15;20.63;;;16.05;;
23561;SDS011;11959;49.418;8.728;2023-05-09T03:18:42;22.52;;;16.50;;
23561;SDS011;11959;49.418;8.728;2023-05-09T03:21:08;22.88;;;16.38;;
23561;SDS011;11959;49.418;8.728;2023-05-09T03:23:33;21.27;;;16.85;;
23561;SDS011;11959;49.418;8.728;2023-05-09T03:25:59;19.75;;;16.38;;
23561;SDS011;11959;49.418;8.728;2023-05-09T03:28:26;20.63;;;16.33;;
23561;SDS011;11959;49.418;8.728;2023-05-09T03:30:52;22.08;;;16.88;;
23561;SDS011;11959;49.418;8.728;2023-05-09T03:33:17;20.20;;;16.13;;
23561;SDS011;11959;49.418;8.728;2023-05-09T03:35:43;20.75;;;16.20;;
23561;SDS011;11959;49.418;8.728;2023-05-09T03:38:09;20.38;;;15.25;;
23561;SDS011;11959;49.418;8.728;2023-05-09T03:40:34;18.88;;;15.40;;
23561;SDS011;11959;49.418;8.728;2023-05-09T03:43:00;22.92;;;15.90;;
23561;SDS011;11959;49.418;8.728;2023-05-09T03:45:26;21.67;;;16.92;;
23561;SDS011;11959;49.418;8.728;2023-05-09T03:47:51;26.88;;;17.75;;
23561;SDS011;11959;49.418;8.728;2023-05-09T03:50:17;22.73;;;17.58;;
23561;SDS011;11959;49.418;8.728;2023-05-09T03:52:43;23.15;;;17.80;;
23561;SDS011;11959;49.418;8.728;2023-05-09T03:55:08;27.55;;;18.75;;
23561;SDS011;11959;49.418;8.728;2023-05-09T03:57:34;23.50;;;17.42;;
23561;SDS011;11959;49.418;8.728;2023-05-09T04:00:00;21.75;;;17.05;;
23561;SDS011;11959;49.418;8.728;2023-05-09T04:02:27;21.38;;;16.52;;
23561;SDS011;11959;49.418;8.728;2023-05-09T04:04:52;25.48;;;19.15;;
23561;SDS011;11959;49.418;8.728;2023-05-09T04:07:18;21.75;;;17.02;;
23561;SDS011;11959;49.418;8.728;2023-05-09T04:09:44;21.60;;;16.50;;
23561;SDS011;11959;49.418;8.728;2023-05-09T04:12:10;22.75;;;17.13;;
23561;SDS011;11959;49.418;8.728;2023-05-09T04:14:36;21.42;;;16.23;;
23561;SDS011;11959;49.418;8.728;2023-05-09T04:17:03;18.60;;;14.85;;
23561;SDS011;11959;49.418;8.728;2023-05-09T04:19:28;20.30;;;15.07;;
23561;SDS011;11959;49.418;8.728;2023-05-09T04:21:54;20.63;;;15.48;;
23561;SDS011;11959;49.418;8.728;2023-05-09T04:24:20;21.42;;;14.85;;
23561;SDS011;11959;49.418;8.728;2023-05-09T04:26:46;21.95;;;15.38;;
23561;SDS011;11959;49.418;8.728;2023-05-09T04:29:11;19.77;;;15.80;;
23561;SDS011;11959;49.418;8.728;2023-05-09T04:31:37;18.25;;;15.23;;
23561;SDS011;11959;49.418;8.728;2023-05-09T04:34:03;24.15;;;16.67;;
23561;SDS011;11959;49.418;8.728;2023-05-09T04:36:28;20.02;;;16.60;;
23561;SDS011;11959;49.418;8.728;2023-05-09T04:38:55;20.00;;;15.60;;
23561;SDS011;11959;49.418;8.728;2023-05-09T04:41:21;20.83;;;16.73;;
23561;SDS011;11959;49.418;8.728;2023-05-09T04:43:47;21.52;;;15.88;;
23561;SDS011;11959;49.418;8.728;2023-05-09T04:46:13;20.98;;;16.70;;
23561;SDS011;11959;49.418;8.728;2023-05-09T04:48:39;20.50;;;16.45;;
23561;SDS011;11959;49.418;8.728;2023-05-09T04:51:05;22.00;;;17.42;;
23561;SDS011;11959;49.418;8.728;2023-05-09T04:53:31;23.45;;;16.20;;
23561;SDS011;11959;49.418;8.728;2023-05-09T04:55:58;20.20;;;15.98;;
23561;SDS011;11959;49.418;8.728;2023-05-09T04:58:23;18.55;;;15.80;;
23561;SDS011;11959;49.418;8.728;2023-05-09T05:00:50;19.63;;;15.95;;
23561;SDS011;11959;49.418;8.728;2023-05-09T05:03:16;19.08;;;14.98;;
23561;SDS011;11959;49.418;8.728;2023-05-09T05:05:42;20.38;;;16.00;;
23561;SDS011;11959;49.418;8.728;2023-05-09T05:08:08;21.33;;;16.52;;
23561;SDS011;11959;49.418;8.728;2023-05-09T05:10:34;21.73;;;16.90;;
23561;SDS011;11959;49.418;8.728;2023-05-09T05:13:00;21.52;;;17.15;;
23561;SDS011;11959;49.418;8.728;2023-05-09T05:15:25;22.10;;;16.85;;
23561;SDS011;11959;49.418;8.728;2023-05-09T05:17:51;18.23;;;14.45;;
23561;SDS011;11959;49.418;8.728;2023-05-09T05:20:17;20.45;;;17.42;;
23561;SDS011;11959;49.418;8.728;2023-05-09T05:22:42;19.38;;;16.48;;
23561;SDS011;11959;49.418;8.728;2023-05-09T05:25:08;22.20;;;17.52;;
23561;SDS011;11959;49.418;8.728;2023-05-09T05:27:34;23.52;;;17.40;;
23561;SDS011;11959;49.418;8.728;2023-05-09T05:30:00;22.00;;;17.38;;
23561;SDS011;11959;49.418;8.728;2023-05-09T05:32:25;24.38;;;17.77;;
23561;SDS011;11959;49.418;8.728;2023-05-09T05:34:51;24.75;;;17.13;;
23561;SDS011;11959;49.418;8.728;2023-05-09T05:37:17;23.88;;;17.88;;
23561;SDS011;11959;49.418;8.728;2023-05-09T05:39:42;22.75;;;18.08;;
23561;SDS011;11959;49.418;8.728;2023-05-09T05:42:08;24.35;;;17.58;;
23561;SDS011;11959;49.418;8.728;2023-05-09T05:44:34;28.58;;;17.85;;
23561;SDS011;11959;49.418;8.728;2023-05-09T05:47:00;23.75;;;17.48;;
23561;SDS011;11959;49.418;8.728;2023-05-09T05:49:26;18.38;;;14.95;;
23561;SDS011;11959;49.418;8.728;2023-05-09T05:51:51;23.33;;;17.45;;
23561;SDS011;11959;49.418;8.728;2023-05-09T05:54:17;21.45;;;18.20;;
23561;SDS011;11959;49.418;8.728;2023-05-09T05:56:43;23.55;;;18.00;;
23561;SDS011;11959;49.418;8.728;2023-05-09T05:59:08;23.02;;;19.15;;
23561;SDS011;11959;49.418;8.728;2023-05-09T06:01:34;26.25;;;19.98;;
23561;SDS011;11959;49.418;8.728;2023-05-09T06:04:00;20.30;;;15.90;;
23561;SDS011;11959;49.418;8.728;2023-05-09T06:06:25;21.95;;;17.55;;
23561;SDS011;11959;49.418;8.728;2023-05-09T06:08:51;23.65;;;18.63;;
23561;SDS011;11959;49.418;8.728;2023-05-09T06:11:17;23.33;;;18.02;;
23561;SDS011;11959;49.418;8.728;2023-05-09T06:13:43;25.95;;;18.75;;
23561;SDS011;11959;49.418;8.728;2023-05-09T06:16:09;21.15;;;16.85;;
23561;SDS011;11959;49.418;8.728;2023-05-09T06:18:35;21.27;;;16.67;;
23561;SDS011;11959;49.418;8.728;2023-05-09T06:21:04;24.92;;;17.83;;
23561;SDS011;11959;49.418;8.728;2023-05-09T06:23:31;23.45;;;18.15;;
23561;SDS011;11959;49.418;8.728;2023-05-09T06:25:57;25.20;;;19.80;;
23561;SDS011;11959;49.418;8.728;2023-05-09T06:28:23;23.15;;;18.15;;
23561;SDS011;11959;49.418;8.728;2023-05-09T06:30:49;23.35;;;18.45;;
23561;SDS011;11959;49.418;8.728;2023-05-09T06:33:14;25.70;;;18.70;;
23561;SDS011;11959;49.418;8.728;2023-05-09T06:35:40;27.77;;;19.13;;
23561;SDS011;11959;49.418;8.728;2023-05-09T06:38:06;23.67;;;18.70;;
23561;SDS011;11959;49.418;8.728;2023-05-09T06:40:32;26.05;;;18.55;;
23561;SDS011;11959;49.418;8.728;2023-05-09T06:42:57;25.90;;;19.42;;
23561;SDS011;11959;49.418;8.728;2023-05-09T06:45:23;27.88;;;20.30;;
23561;SDS011;11959;49.418;8.728;2023-05-09T06:47:49;28.17;;;19.63;;
23561;SDS011;11959;49.418;8.728;2023-05-09T06:50:15;22.88;;;18.30;;
23561;SDS011;11959;49.418;8.728;2023-05-09T06:52:41;25.77;;;18.65;;
23561;SDS011;11959;49.418;8.728;2023-05-09T06:55:07;25.40;;;18.83;;
23561;SDS011;11959;49.418;8.728;2023-05-09T06:57:33;27.20;;;18.48;;
23561;SDS011;11959;49.418;8.728;2023-05-09T06:59:58;26.58;;;19.13;;
23561;SDS011;11959;49.418;8.728;2023-05-09T07:02:24;24.75;;;19.00;;
23561;SDS011;11959;49.418;8.728;2023-05-09T07:04:50;25.10;;;19.58;;
23561;SDS011;11959;49.418;8.728;2023-05-09T07:07:15;25.73;;;19.40;;
23561;SDS011;11959;49.418;8.728;2023-05-09T07:09:41;24.40;;;18.50;;
23561;SDS011;11959;49.418;8.728;2023-05-09T07:12:07;25.40;;;18.58;;
23561;SDS011;11959;49.418;8.728;2023-05-09T07:14:32;25.73;;;17.85;;
23561;SDS011;11959;49.418;8.728;2023-05-09T07:16:58;25.77;;;17.88;;
23561;SDS011;11959;49.418;8.728;2023-05-09T07:19:24;23.67;;;18.30;;
23561;SDS011;11959;49.418;8.728;2023-05-09T07:21:50;21.92;;;17.73;;
23561;SDS011;11959;49.418;8.728;2023-05-09T07:24:16;22.73;;;17.83;;
23561;SDS011;11959;49.418;8.728;2023-05-09T07:26:41;22.83;;;16.95;;
23561;SDS011;11959;49.418;8.728;2023-05-09T07:29:07;23.85;;;18.08;;
23561;SDS011;11959;49.418;8.728;2023-05-09T07:31:33;24.25;;;18.73;;
23561;SDS011;11959;49.418;8.728;2023-05-09T07:33:58;26.98;;;18.92;;
23561;SDS011;11959;49.418;8.728;2023-05-09T07:36:24;27.92;;;19.58;;
23561;SDS011;11959;49.418;8.728;2023-05-09T07:38:50;26.88;;;19.35;;
23561;SDS011;11959;49.418;8.728;2023-05-09T07:41:17;26.08;;;20.00;;
23561;SDS011;11959;49.418;8.728;2023-05-09T07:43:43;27.08;;;20.25;;
23561;SDS011;11959;49.418;8.728;2023-05-09T07:46:09;27.65;;;19.20;;
23561;SDS011;11959;49.418;8.728;2023-05-09T07:48:35;22.88;;;18.38;;
23561;SDS011;11959;49.418;8.728;2023-05-09T07:51:00;26.98;;;18.30;;
23561;SDS011;11959;49.418;8.728;2023-05-09T07:53:27;27.30;;;19.40;;
23561;SDS011;11959;49.418;8.728;2023-05-09T07:55:52;26.17;;;18.92;;
23561;SDS011;11959;49.418;8.728;2023-05-09T07:58:18;26.08;;;19.33;;
23561;SDS011;11959;49.418;8.728;2023-05-09T08:00:44;24.15;;;18.08;;
23561;SDS011;11959;49.418;8.728;2023-05-09T08:03:09;24.38;;;17.90;;
23561;SDS011;11959;49.418;8.728;2023-05-09T08:05:35;24.45;;;18.40;;
23561;SDS011;11959;49.418;8.728;2023-05-09T08:08:01;25.83;;;18.73;;
23561;SDS011;11959;49.418;8.728;2023-05-09T08:10:26;26.33;;;19.10;;
23561;SDS011;11959;49.418;8.728;2023-05-09T08:12:54;27.23;;;19.23;;
23561;SDS011;11959;49.418;8.728;2023-05-09T08:15:20;28.80;;;20.23;;
23561;SDS011;11959;49.418;8.728;2023-05-09T08:17:46;25.58;;;19.35;;
23561;SDS011;11959;49.418;8.728;2023-05-09T08:20:12;23.63;;;18.92;;
23561;SDS011;11959;49.418;8.728;2023-05-09T08:22:38;25.73;;;19.10;;
23561;SDS011;11959;49.418;8.728;2023-05-09T08:25:05;28.02;;;19.95;;
23561;SDS011;11959;49.418;8.728;2023-05-09T08:27:31;25.23;;;18.42;;
23561;SDS011;11959;49.418;8.728;2023-05-09T08:29:57;27.27;;;19.13;;
23561;SDS011;11959;49.418;8.728;2023-05-09T08:32:22;24.20;;;18.83;;
23561;SDS011;11959;49.418;8.728;2023-05-09T08:34:48;27.00;;;20.00;;
23561;SDS011;11959;49.418;8.728;2023-05-09T08:37:13;29.02;;;20.25;;
23561;SDS011;11959;49.418;8.728;2023-05-09T08:39:39;27.98;;;20.42;;
23561;SDS011;11959;49.418;8.728;2023-05-09T08:42:05;26.42;;;19.30;;
23561;SDS011;11959;49.418;8.728;2023-05-09T08:44:32;34.17;;;20.65;;
23561;SDS011;11959;49.418;8.728;2023-05-09T08:46:59;26.67;;;19.88;;
23561;SDS011;11959;49.418;8.728;2023-05-09T08:49:26;24.88;;;18.08;;
23561;SDS011;11959;49.418;8.728;2023-05-09T08:51:52;26.02;;;19.40;;
23561;SDS011;11959;49.418;8.728;2023-05-09T08:54:20;27.33;;;18.95;;
23561;SDS011;11959;49.418;8.728;2023-05-09T08:56:46;24.40;;;19.55;;
23561;SDS011;11959;49.418;8.728;2023-05-09T08:59:12;28.10;;;20.05;;
23561;SDS011;11959;49.418;8.728;2023-05-09T09:01:39;26.58;;;19.30;;
23561;SDS011;11959;49.418;8.728;2023-05-09T09:04:07;28.65;;;19.85;;
23561;SDS011;11959;49.418;8.728;2023-05-09T09:06:33;25.63;;;18.33;;
23561;SDS011;11959;49.418;8.728;2023-05-09T09:09:00;26.98;;;19.70;;
23561;SDS011;11959;49.418;8.728;2023-05-09T09:11:29;24.90;;;18.60;;
23561;SDS011;11959;49.418;8.728;2023-05-09T09:13:55;26.55;;;18.75;;
23561;SDS011;11959;49.418;8.728;2023-05-09T09:16:26;33.60;;;20.25;;
23561;SDS011;11959;49.418;8.728;2023-05-09T09:18:53;27.13;;;19.60;;
23561;SDS011;11959;49.418;8.728;2023-05-09T09:21:23;26.05;;;18.80;;
23561;SDS011;11959;49.418;8.728;2023-05-09T09:23:49;23.52;;;18.20;;
23561;SDS011;11959;49.418;8.728;2023-05-09T09:26:19;25.35;;;18.35;;
23561;SDS011;11959;49.418;8.728;2023-05-09T09:28:45;24.05;;;17.77;;
23561;SDS011;11959;49.418;8.728;2023-05-09T09:31:17;22.55;;;17.95;;
23561;SDS011;11959;49.418;8.728;2023-05-09T09:33:47;25.35;;;19.23;;
23561;SDS011;11959;49.418;8.728;2023-05-09T09:36:13;24.20;;;18.10;;
23561;SDS011;11959;49.418;8.728;2023-05-09T09:38:39;25.02;;;18.92;;
23561;SDS011;11959;49.418;8.728;2023-05-09T09:41:07;24.15;;;17.67;;
23561;SDS011;11959;49.418;8.728;2023-05-09T09:43:35;23.02;;;18.30;;
23561;SDS011;11959;49.418;8.728;2023-05-09T09:46:01;26.10;;;19.25;;
23561;SDS011;11959;49.418;8.728;2023-05-09T09:48:33;25.27;;;17.02;;
23561;SDS011;11959;49.418;8.728;2023-05-09T09:51:09;25.23;;;18.63;;
23561;SDS011;11959;49.418;8.728;2023-05-09T09:53:39;22.05;;;17.00;;
23561;SDS011;11959;49.418;8.728;2023-05-09T09:56:05;19.90;;;16.23;;
23561;SDS011;11959;49.418;8.728;2023-05-09T09:58:32;21.10;;;16.38;;
23561;SDS011;11959;49.418;8.728;2023-05-09T10:03:41;24.38;;;17.60;;
23561;SDS011;11959;49.418;8.728;2023-05-09T10:06:12;21.95;;;17.45;;
23561;SDS011;11959;49.418;8.728;2023-05-09T10:08:40;22.48;;;17.60;;
23561;SDS011;11959;49.418;8.728;2023-05-09T10:11:07;18.52;;;15.85;;
23561;SDS011;11959;49.418;8.728;2023-05-09T10:13:33;21.42;;;16.55;;
23561;SDS011;11959;49.418;8.728;2023-05-09T10:16:00;20.38;;;16.65;;
23561;SDS011;11959;49.418;8.728;2023-05-09T10:18:28;19.92;;;16.48;;
23561;SDS011;11959;49.418;8.728;2023-05-09T10:20:58;21.25;;;15.73;;
23561;SDS011;11959;49.418;8.728;2023-05-09T10:23:26;19.27;;;15.82;;
23561;SDS011;11959;49.418;8.728;2023-05-09T10:28:44;22.35;;;16.77;;
23561;SDS011;11959;49.418;8.728;2023-05-09T10:31:17;17.80;;;14.45;;
23561;SDS011;11959;49.418;8.728;2023-05-09T10:33:49;19.73;;;14.05;;
23561;SDS011;11959;49.418;8.728;2023-05-09T10:36:17;17.58;;;14.02;;
23561;SDS011;11959;49.418;8.728;2023-05-09T10:38:50;18.55;;;13.10;;
23561;SDS011;11959;49.418;8.728;2023-05-09T10:41:20;19.63;;;13.75;;
23561;SDS011;11959;49.418;8.728;2023-05-09T10:43:46;15.82;;;13.07;;
23561;SDS011;11959;49.418;8.728;2023-05-09T10:46:12;17.23;;;13.63;;
23561;SDS011;11959;49.418;8.728;2023-05-09T10:48:39;17.15;;;14.40;;
23561;SDS011;11959;49.418;8.728;2023-05-09T10:51:07;18.10;;;14.15;;
23561;SDS011;11959;49.418;8.728;2023-05-09T10:58:48;17.98;;;14.73;;
23561;SDS011;11959;49.418;8.728;2023-05-09T11:01:14;18.13;;;14.73;;
23561;SDS011;11959;49.418;8.728;2023-05-09T11:03:58;15.93;;;13.60;;
23561;SDS011;11959;49.418;8.728;2023-05-09T11:06:41;15.52;;;12.00;;
23561;SDS011;11959;49.418;8.728;2023-05-09T11:12:06;18.30;;;12.60;;
23561;SDS011;11959;49.418;8.728;2023-05-09T11:17:11;14.23;;;11.80;;
23561;SDS011;11959;49.418;8.728;2023-05-09T11:22:11;12.95;;;11.25;;
23561;SDS011;11959;49.418;8.728;2023-05-09T11:24:38;15.80;;;11.70;;
23561;SDS011;11959;49.418;8.728;2023-05-09T11:27:24;15.25;;;11.77;;
23561;SDS011;11959;49.418;8.728;2023-05-09T11:29:57;14.55;;;11.05;;
23561;SDS011;11959;49.418;8.728;2023-05-09T11:32:27;14.15;;;11.02;;
23561;SDS011;11959;49.418;8.728;2023-05-09T11:38:20;13.90;;;10.85;;
23561;SDS011;11959;49.418;8.728;2023-05-09T11:40:24;12.63;;;10.38;;
23561;SDS011;11959;49.418;8.728;2023-05-09T11:42:52;13.35;;;10.40;;
23561;SDS011;11959;49.418;8.728;2023-05-09T11:45:20;10.75;;;9.15;;
23561;SDS011;11959;49.418;8.728;2023-05-09T11:47:47;14.32;;;11.15;;
23561;SDS011;11959;49.418;8.728;2023-05-09T11:50:15;11.65;;;9.50;;
23561;SDS011;11959;49.418;8.728;2023-05-09T11:52:43;9.80;;;8.18;;
23561;SDS011;11959;49.418;8.728;2023-05-09T11:55:11;8.57;;;7.30;;
23561;SDS011;11959;49.418;8.728;2023-05-09T11:57:38;10.95;;;6.70;;
23561;SDS011;11959;49.418;8.728;2023-05-09T12:00:15;8.32;;;6.50;;
23561;SDS011;11959;49.418;8.728;2023-05-09T12:02:45;9.25;;;7.32;;
23561;SDS011;11959;49.418;8.728;2023-05-09T12:05:12;6.57;;;5.95;;
23561;SDS011;11959;49.418;8.728;2023-05-09T12:07:39;7.20;;;6.50;;
23561;SDS011;11959;49.418;8.728;2023-05-09T12:12:43;7.90;;;6.07;;
23561;SDS011;11959;49.418;8.728;2023-05-09T12:15:13;8.50;;;6.00;;
23561;SDS011;11959;49.418;8.728;2023-05-09T12:17:39;7.50;;;6.40;;
23561;SDS011;11959;49.418;8.728;2023-05-09T12:20:06;7.43;;;5.97;;
23561;SDS011;11959;49.418;8.728;2023-05-09T12:22:32;6.85;;;5.35;;
23561;SDS011;11959;49.418;8.728;2023-05-09T12:24:59;7.68;;;6.43;;
23561;SDS011;11959;49.418;8.728;2023-05-09T12:27:29;8.73;;;5.57;;
23561;SDS011;11959;49.418;8.728;2023-05-09T12:29:57;7.38;;;5.28;;
23561;SDS011;11959;49.418;8.728;2023-05-09T12:32:24;6.45;;;5.13;;
23561;SDS011;11959;49.418;8.728;2023-05-09T12:34:55;6.43;;;4.78;;
23561;SDS011;11959;49.418;8.728;2023-05-09T12:37:22;6.20;;;5.60;;
23561;SDS011;11959;49.418;8.728;2023-05-09T12:42:28;6.75;;;5.50;;
23561;SDS011;11959;49.418;8.728;2023-05-09T12:44:55;5.45;;;4.90;;
23561;SDS011;11959;49.418;8.728;2023-05-09T12:47:22;6.28;;;5.45;;
23561;SDS011;11959;49.418;8.728;2023-05-09T12:49:52;5.75;;;5.18;;
23561;SDS011;11959;49.418;8.728;2023-05-09T12:52:20;8.88;;;6.40;;
23561;SDS011;11959;49.418;8.728;2023-05-09T12:54:46;7.47;;;5.57;;
23561;SDS011;11959;49.418;8.728;2023-05-09T12:57:22;7.68;;;6.07;;
23561;SDS011;11959;49.418;8.728;2023-05-09T12:59:49;8.10;;;5.60;;
23561;SDS011;11959;49.418;8.728;2023-05-09T13:02:15;9.35;;;6.10;;
23561;SDS011;11959;49.418;8.728;2023-05-09T13:04:43;6.93;;;5.70;;
23561;SDS011;11959;49.418;8.728;2023-05-09T13:07:09;8.13;;;6.35;;
23561;SDS011;11959;49.418;8.728;2023-05-09T13:09:35;6.75;;;5.97;;
23561;SDS011;11959;49.418;8.728;2023-05-09T13:12:17;6.30;;;5.65;;
23561;SDS011;11959;49.418;8.728;2023-05-09T13:14:44;6.78;;;5.78;;
23561;SDS011;11959;49.418;8.728;2023-05-09T13:17:10;5.63;;;5.13;;
23561;SDS011;11959;49.418;8.728;2023-05-09T13:19:35;8.85;;;5.82;;
23561;SDS011;11959;49.418;8.728;2023-05-09T13:22:03;7.57;;;5.63;;
23561;SDS011;11959;49.418;8.728;2023-05-09T13:24:29;7.75;;;6.10;;
23561;SDS011;11959;49.418;8.728;2023-05-09T13:26:55;6.25;;;5.65;;
23561;SDS011;11959;49.418;8.728;2023-05-09T13:29:21;7.80;;;6.35;;
23561;SDS011;11959;49.418;8.728;2023-05-09T13:31:46;8.65;;;6.60;;
23561;SDS011;11959;49.418;8.728;2023-05-09T13:34:13;11.68;;;6.97;;
23561;SDS011;11959;49.418;8.728;2023-05-09T13:36:40;6.75;;;6.03;;
23561;SDS011;11959;49.418;8.728;2023-05-09T13:39:06;6.60;;;6.00;;
23561;SDS011;11959;49.418;8.728;2023-05-09T13:41:31;8.50;;;6.55;;
23561;SDS011;11959;49.418;8.728;2023-05-09T13:43:57;7.68;;;6.15;;
23561;SDS011;11959;49.418;8.728;2023-05-09T13:46:23;7.85;;;7.05;;
23561;SDS011;11959;49.418;8.728;2023-05-09T13:48:49;8.15;;;6.80;;
23561;SDS011;11959;49.418;8.728;2023-05-09T13:51:14;9.77;;;7.07;;
23561;SDS011;11959;49.418;8.728;2023-05-09T13:53:40;11.55;;;7.55;;
23561;SDS011;11959;49.418;8.728;2023-05-09T13:56:06;7.70;;;6.85;;
23561;SDS011;11959;49.418;8.728;2023-05-09T13:58:33;7.93;;;6.80;;
23561;SDS011;11959;49.418;8.728;2023-05-09T14:00:59;7.35;;;6.57;;
23561;SDS011;11959;49.418;8.728;2023-05-09T14:03:25;7.45;;;6.70;;
23561;SDS011;11959;49.418;8.728;2023-05-09T14:05:51;7.10;;;6.43;;
23561;SDS011;11959;49.418;8.728;2023-05-09T14:08:17;8.73;;;7.35;;
23561;SDS011;11959;49.418;8.728;2023-05-09T14:10:42;8.65;;;6.90;;
23561;SDS011;11959;49.418;8.728;2023-05-09T14:13:08;7.47;;;6.60;;
23561;SDS011;11959;49.418;8.728;2023-05-09T14:15:35;7.03;;;6.32;;
23561;SDS011;11959;49.418;8.728;2023-05-09T14:18:01;9.32;;;7.13;;
23561;SDS011;11959;49.418;8.728;2023-05-09T14:20:29;8.80;;;6.78;;
23561;SDS011;11959;49.418;8.728;2023-05-09T14:22:55;9.48;;;6.82;;
23561;SDS011;11959;49.418;8.728;2023-05-09T14:25:24;7.60;;;6.80;;
23561;SDS011;11959;49.418;8.728;2023-05-09T14:27:50;6.32;;;5.72;;
23561;SDS011;11959;49.418;8.728;2023-05-09T14:30:17;6.45;;;5.63;;
23561;SDS011;11959;49.418;8.728;2023-05-09T14:32:42;10.07;;;6.75;;
23561;SDS011;11959;49.418;8.728;2023-05-09T14:35:08;8.00;;;6.72;;
23561;SDS011;11959;49.418;8.728;2023-05-09T14:37:33;9.20;;;6.28;;
23561;SDS011;11959;49.418;8.728;2023-05-09T14:40:00;7.63;;;6.57;;
23561;SDS011;11959;49.418;8.728;2023-05-09T14:42:29;7.13;;;6.43;;
23561;SDS011;11959;49.418;8.728;2023-05-09T14:44:56;7.47;;;6.70;;
23561;SDS011;11959;49.418;8.728;2023-05-09T14:47:22;9.02;;;6.80;;
23561;SDS011;11959;49.418;8.728;2023-05-09T14:49:47;9.32;;;6.60;;
23561;SDS011;11959;49.418;8.728;2023-05-09T14:52:13;8.30;;;6.50;;
23561;SDS011;11959;49.418;8.728;2023-05-09T14:54:39;6.80;;;6.15;;
23561;SDS011;11959;49.418;8.728;2023-05-09T14:57:05;6.80;;;6.10;;